createdAt,value
2018-07-24T00:00:12.665Z,21.01
2018-07-24T00:01:12.642Z,21.04
2018-07-24T00:02:12.632Z,21.03
2018-07-24T00:03:12.641Z,20.94
2018-07-24T00:04:12.612Z,20.98
2018-07-24T00:05:12.611Z,20.97
2018-07-24T00:06:12.602Z,21.04
2018-07-24T00:07:12.580Z,20.97
2018-07-24T00:08:12.569Z,20.97
2018-07-24T00:09:12.576Z,20.95
2018-07-24T00:10:12.544Z,21.01
2018-07-24T00:11:12.535Z,21.01
2018-07-24T00:12:12.525Z,21.03
2018-07-24T00:13:12.530Z,20.97
2018-07-24T00:14:12.504Z,20.89
2018-07-24T00:15:12.492Z,20.98
2018-07-24T00:16:12.497Z,20.89
2018-07-24T00:17:12.470Z,20.97
2018-07-24T00:18:12.473Z,20.92
2018-07-24T00:19:12.449Z,20.84
2018-07-24T00:20:12.441Z,20.89
2018-07-24T00:21:12.443Z,20.87
2018-07-24T00:22:12.415Z,20.79
2018-07-24T00:23:12.410Z,20.76
2018-07-24T00:24:12.398Z,20.74
2018-07-24T00:25:12.387Z,20.70
2018-07-24T00:26:12.414Z,20.72
2018-07-24T00:27:12.362Z,20.67
2018-07-24T00:28:12.354Z,20.70
2018-07-24T00:29:12.341Z,20.70
2018-07-24T00:30:12.331Z,20.72
2018-07-24T00:31:12.323Z,20.70
2018-07-24T00:32:12.336Z,20.74
2018-07-24T00:33:12.301Z,20.70
2018-07-24T00:34:12.292Z,20.74
2018-07-24T00:35:12.279Z,20.70
2018-07-24T00:36:12.266Z,20.74
2018-07-24T00:37:12.256Z,20.73
2018-07-24T00:38:12.259Z,20.70
2018-07-24T00:39:12.237Z,20.77
2018-07-24T00:40:12.239Z,20.76
2018-07-24T00:41:12.215Z,20.67
2018-07-24T00:42:12.200Z,20.73
2018-07-24T00:43:12.193Z,20.69
2018-07-24T00:44:12.181Z,20.62
2018-07-24T00:45:12.195Z,20.61
2018-07-24T00:46:12.160Z,20.57
2018-07-24T00:47:12.148Z,20.62
2018-07-24T00:48:12.139Z,20.57
2018-07-24T00:49:12.128Z,20.59
2018-07-24T00:50:12.150Z,20.57
2018-07-24T00:51:12.106Z,20.59
2018-07-24T00:52:12.094Z,20.61
2018-07-24T00:53:12.082Z,20.59
2018-07-24T00:54:12.101Z,20.69
2018-07-24T00:55:12.061Z,20.58
2018-07-24T00:56:12.075Z,20.69
2018-07-24T00:57:12.041Z,20.66
2018-07-24T00:58:12.030Z,20.59
2018-07-24T00:59:12.018Z,20.69
2018-07-24T01:00:12.010Z,20.73
2018-07-24T01:01:11.999Z,20.66
2018-07-24T01:02:11.997Z,20.66
2018-07-24T01:03:11.973Z,20.69
2018-07-24T01:04:11.964Z,20.66
2018-07-24T01:05:11.956Z,20.66
2018-07-24T01:06:12.007Z,20.57
2018-07-24T01:07:11.953Z,20.55
2018-07-24T01:08:11.921Z,20.58
2018-07-24T01:09:11.913Z,20.62
2018-07-24T01:10:11.906Z,20.64
2018-07-24T01:11:11.893Z,20.59
2018-07-24T01:12:11.881Z,20.64
2018-07-24T01:13:11.896Z,20.59
2018-07-24T01:14:11.903Z,20.59
2018-07-24T01:15:11.846Z,20.62
2018-07-24T01:16:11.838Z,20.67
2018-07-24T01:17:11.830Z,20.54
2018-07-24T01:18:11.816Z,20.57
2018-07-24T01:19:11.825Z,20.58
2018-07-24T01:20:11.795Z,20.57
2018-07-24T01:21:11.786Z,20.66
2018-07-24T01:22:11.772Z,20.55
2018-07-24T01:23:11.763Z,20.59
2018-07-24T01:24:11.750Z,20.58
2018-07-24T01:25:11.755Z,20.58
2018-07-24T01:26:11.732Z,20.58
2018-07-24T01:27:11.734Z,20.55
2018-07-24T01:28:11.710Z,20.54
2018-07-24T01:29:11.698Z,20.58
2018-07-24T01:30:11.700Z,20.57
2018-07-24T01:31:11.675Z,20.57
2018-07-24T01:32:11.666Z,20.55
2018-07-24T01:33:11.654Z,20.43
2018-07-24T01:34:11.646Z,20.55
2018-07-24T01:35:11.645Z,20.42
2018-07-24T01:36:11.625Z,20.41
2018-07-24T01:37:11.615Z,20.43
2018-07-24T01:38:11.609Z,20.39
2018-07-24T01:39:11.593Z,20.51
2018-07-24T01:40:11.582Z,20.51
2018-07-24T01:41:11.582Z,20.50
2018-07-24T01:42:11.557Z,20.47
2018-07-24T01:43:11.567Z,20.48
2018-07-24T01:44:11.536Z,20.51
2018-07-24T01:45:11.528Z,20.42
2018-07-24T01:46:11.517Z,20.42
2018-07-24T01:47:11.519Z,20.39
2018-07-24T01:48:11.501Z,20.39
2018-07-24T01:49:11.497Z,20.38
2018-07-24T01:50:11.472Z,20.38
2018-07-24T01:51:11.461Z,20.31
2018-07-24T01:52:11.452Z,20.26
2018-07-24T01:53:11.442Z,20.31
2018-07-24T01:54:11.447Z,20.28
2018-07-24T01:55:11.422Z,20.29
2018-07-24T01:56:11.406Z,20.32
2018-07-24T01:57:11.395Z,20.28
2018-07-24T01:58:11.388Z,20.24
2018-07-24T01:59:11.378Z,20.24
2018-07-24T02:00:11.381Z,20.26
2018-07-24T02:01:11.353Z,20.20
2018-07-24T02:02:11.342Z,20.20
2018-07-24T02:03:11.331Z,20.23
2018-07-24T02:04:11.323Z,20.23
2018-07-24T02:05:11.323Z,20.28
2018-07-24T02:06:11.299Z,20.21
2018-07-24T02:07:11.292Z,20.18
2018-07-24T02:08:11.277Z,20.20
2018-07-24T02:09:11.268Z,20.18
2018-07-24T02:10:11.273Z,20.24
2018-07-24T02:11:11.250Z,20.23
2018-07-24T02:12:11.235Z,20.10
2018-07-24T02:13:11.227Z,20.08
2018-07-24T02:14:11.215Z,20.16
2018-07-24T02:15:11.217Z,20.08
2018-07-24T02:16:11.196Z,20.03
2018-07-24T02:17:11.182Z,20.03
2018-07-24T02:18:11.171Z,20.08
2018-07-24T02:19:11.163Z,19.95
2018-07-24T02:20:11.193Z,20.18
2018-07-24T02:21:11.142Z,20.05
2018-07-24T02:22:11.130Z,20.02
2018-07-24T02:23:11.118Z,20.10
2018-07-24T02:24:11.107Z,20.05
2018-07-24T02:25:11.100Z,20.02
2018-07-24T02:26:11.098Z,20.03
2018-07-24T02:27:11.074Z,20.06
2018-07-24T02:28:11.064Z,20.02
2018-07-24T02:29:11.053Z,19.87
2018-07-24T02:30:11.042Z,19.88
2018-07-24T02:31:11.045Z,19.87
2018-07-24T02:32:11.021Z,19.92
2018-07-24T02:33:11.014Z,19.91
2018-07-24T02:34:11.000Z,19.94
2018-07-24T02:35:10.990Z,19.87
2018-07-24T02:36:10.994Z,19.87
2018-07-24T02:37:10.971Z,19.92
2018-07-24T02:38:10.958Z,19.98
2018-07-24T02:39:10.947Z,19.88
2018-07-24T02:40:10.945Z,19.92
2018-07-24T02:41:10.924Z,19.86
2018-07-24T02:42:10.927Z,19.87
2018-07-24T02:43:10.906Z,19.86
2018-07-24T02:44:10.896Z,19.84
2018-07-24T02:45:10.882Z,19.78
2018-07-24T02:46:10.873Z,19.73
2018-07-24T02:47:10.870Z,19.69
2018-07-24T02:48:10.851Z,19.73
2018-07-24T02:49:10.839Z,19.73
2018-07-24T02:50:10.830Z,19.73
2018-07-24T02:51:10.817Z,19.71
2018-07-24T02:52:10.839Z,19.66
2018-07-24T02:53:10.796Z,19.76
2018-07-24T02:54:10.788Z,19.73
2018-07-24T02:55:10.777Z,19.71
2018-07-24T02:56:10.768Z,19.73
2018-07-24T02:57:10.752Z,19.78
2018-07-24T02:58:10.761Z,19.80
2018-07-24T02:59:10.734Z,19.80
2018-07-24T03:00:10.720Z,19.76
2018-07-24T03:01:10.713Z,19.73
2018-07-24T03:02:10.703Z,19.78
2018-07-24T03:03:10.702Z,19.84
2018-07-24T03:04:10.686Z,19.71
2018-07-24T03:05:10.668Z,19.77
2018-07-24T03:06:10.656Z,19.66
2018-07-24T03:07:10.645Z,19.71
2018-07-24T03:08:10.647Z,19.68
2018-07-24T03:09:10.623Z,19.69
2018-07-24T03:10:10.613Z,19.73
2018-07-24T03:11:10.600Z,19.63
2018-07-24T03:12:10.613Z,19.62
2018-07-24T03:13:10.579Z,19.62
2018-07-24T03:14:10.578Z,19.56
2018-07-24T03:15:10.558Z,19.65
2018-07-24T03:16:10.579Z,19.51
2018-07-24T03:17:10.540Z,19.55
2018-07-24T03:18:10.548Z,19.51
2018-07-24T03:19:10.514Z,19.44
2018-07-24T03:20:10.504Z,19.54
2018-07-24T03:21:10.491Z,19.54
2018-07-24T03:22:10.484Z,19.51
2018-07-24T03:23:10.473Z,19.54
2018-07-24T03:24:10.474Z,19.39
2018-07-24T03:25:10.453Z,19.48
2018-07-24T03:26:10.441Z,19.47
2018-07-24T03:27:10.432Z,19.47
2018-07-24T03:28:10.430Z,19.44
2018-07-24T03:29:10.409Z,19.40
2018-07-24T03:30:10.397Z,19.41
2018-07-24T03:31:10.398Z,19.33
2018-07-24T03:32:10.383Z,19.41
2018-07-24T03:33:10.378Z,19.33
2018-07-24T03:34:10.351Z,19.43
2018-07-24T03:35:10.341Z,19.39
2018-07-24T03:36:10.329Z,19.41
2018-07-24T03:37:10.334Z,19.33
2018-07-24T03:38:10.311Z,19.37
2018-07-24T03:39:10.296Z,19.41
2018-07-24T03:40:10.305Z,19.36
2018-07-24T03:41:10.279Z,19.37
2018-07-24T03:42:10.272Z,19.32
2018-07-24T03:43:10.276Z,19.41
2018-07-24T03:44:10.246Z,19.31
2018-07-24T03:45:10.288Z,19.33
2018-07-24T03:46:10.224Z,19.31
2018-07-24T03:47:10.211Z,19.31
2018-07-24T03:48:10.199Z,19.33
2018-07-24T03:49:10.201Z,19.31
2018-07-24T03:50:10.178Z,19.26
2018-07-24T03:51:10.165Z,19.26
2018-07-24T03:52:10.157Z,19.21
2018-07-24T03:53:10.193Z,19.21
2018-07-24T03:54:10.136Z,19.25
2018-07-24T03:55:10.128Z,19.23
2018-07-24T03:56:10.115Z,19.22
2018-07-24T03:57:10.100Z,19.25
2018-07-24T03:58:10.090Z,19.21
2018-07-24T03:59:10.095Z,19.19
2018-07-24T04:00:10.069Z,19.18
2018-07-24T04:01:10.055Z,19.32
2018-07-24T04:02:10.070Z,19.16
2018-07-24T04:03:10.036Z,19.21
2018-07-24T04:04:10.038Z,19.18
2018-07-24T04:05:10.031Z,19.22
2018-07-24T04:06:09.999Z,19.19
2018-07-24T04:07:09.988Z,19.23
2018-07-24T04:08:09.980Z,19.25
2018-07-24T04:09:09.966Z,19.28
2018-07-24T04:10:09.954Z,19.31
2018-07-24T04:11:09.962Z,19.29
2018-07-24T04:12:09.934Z,19.22
2018-07-24T04:13:09.927Z,19.22
2018-07-24T04:14:09.910Z,19.21
2018-07-24T04:15:09.899Z,19.23
2018-07-24T04:16:09.891Z,19.23
2018-07-24T04:17:09.891Z,19.22
2018-07-24T04:18:09.868Z,19.33
2018-07-24T04:19:09.858Z,19.26
2018-07-24T04:20:09.848Z,19.33
2018-07-24T04:21:09.856Z,19.29
2018-07-24T04:22:09.823Z,19.29
2018-07-24T04:23:09.814Z,19.28
2018-07-24T04:24:09.817Z,19.29
2018-07-24T04:25:09.793Z,19.37
2018-07-24T04:26:09.795Z,19.32
2018-07-24T04:27:09.786Z,19.36
2018-07-24T04:28:09.760Z,19.36
2018-07-24T04:29:09.749Z,19.37
2018-07-24T04:30:09.736Z,19.37
2018-07-24T04:31:09.785Z,19.39
2018-07-24T04:32:09.723Z,19.39
2018-07-24T04:33:09.702Z,19.41
2018-07-24T04:34:09.694Z,19.37
2018-07-24T04:35:09.686Z,19.31
2018-07-24T04:36:09.673Z,19.44
2018-07-24T04:37:09.681Z,19.46
2018-07-24T04:38:09.652Z,19.39
2018-07-24T04:39:09.640Z,19.55
2018-07-24T04:40:09.688Z,19.56
2018-07-24T04:41:09.622Z,19.44
2018-07-24T04:42:09.618Z,19.48
2018-07-24T04:43:09.618Z,19.61
2018-07-24T04:44:09.587Z,19.61
2018-07-24T04:45:09.576Z,19.56
2018-07-24T04:46:09.564Z,19.65
2018-07-24T04:47:09.552Z,19.63
2018-07-24T04:48:09.541Z,19.65
2018-07-24T04:49:09.542Z,19.68
2018-07-24T04:50:09.520Z,19.69
2018-07-24T04:51:09.522Z,19.73
2018-07-24T04:52:09.501Z,19.78
2018-07-24T04:53:09.490Z,19.80
2018-07-24T04:54:09.489Z,19.77
2018-07-24T04:55:09.469Z,19.83
2018-07-24T04:56:09.460Z,19.84
2018-07-24T04:57:09.448Z,19.91
2018-07-24T04:58:09.438Z,19.86
2018-07-24T04:59:09.434Z,19.88
2018-07-24T05:00:09.424Z,19.88
2018-07-24T05:01:09.405Z,20.05
2018-07-24T05:02:09.392Z,20.11
2018-07-24T05:03:09.420Z,20.05
2018-07-24T05:04:09.372Z,20.03
2018-07-24T05:05:09.372Z,20.01
2018-07-24T05:06:09.351Z,20.05
2018-07-24T05:07:09.338Z,20.06
2018-07-24T05:08:09.329Z,20.06
2018-07-24T05:09:09.317Z,20.16
2018-07-24T05:10:09.329Z,20.16
2018-07-24T05:11:09.296Z,20.13
2018-07-24T05:12:09.287Z,20.17
2018-07-24T05:13:09.276Z,20.28
2018-07-24T05:14:09.264Z,20.21
2018-07-24T05:15:09.254Z,20.26
2018-07-24T05:16:09.260Z,20.33
2018-07-24T05:17:09.230Z,20.42
2018-07-24T05:18:09.223Z,20.50
2018-07-24T05:19:09.209Z,20.50
2018-07-24T05:20:09.197Z,20.47
2018-07-24T05:21:09.186Z,20.50
2018-07-24T05:22:09.189Z,20.55
2018-07-24T05:23:09.165Z,20.58
2018-07-24T05:24:09.157Z,20.69
2018-07-24T05:25:09.143Z,20.70
2018-07-24T05:26:09.146Z,20.73
2018-07-24T05:27:09.123Z,20.85
2018-07-24T05:28:09.114Z,20.91
2018-07-24T05:29:09.101Z,20.99
2018-07-24T05:30:09.092Z,21.16
2018-07-24T05:31:09.092Z,21.28
2018-07-24T05:32:09.082Z,21.31
2018-07-24T05:33:09.092Z,21.53
2018-07-24T05:34:09.050Z,21.68
2018-07-24T05:35:09.038Z,21.74
2018-07-24T05:36:09.028Z,21.90
2018-07-24T05:37:09.056Z,22.02
2018-07-24T05:38:09.003Z,22.24
2018-07-24T05:39:08.992Z,22.49
2018-07-24T05:40:08.984Z,22.68
2018-07-24T05:41:08.971Z,22.91
2018-07-24T05:42:08.962Z,23.16
2018-07-24T05:43:08.961Z,23.51
2018-07-24T05:44:08.940Z,23.94
2018-07-24T05:45:08.932Z,24.31
2018-07-24T05:46:08.921Z,24.53
2018-07-24T05:47:08.927Z,24.99
2018-07-24T05:48:08.896Z,25.17
2018-07-24T05:49:08.886Z,25.40
2018-07-24T05:50:08.875Z,25.54
2018-07-24T05:51:08.867Z,25.62
2018-07-24T05:52:08.851Z,25.85
2018-07-24T05:53:08.862Z,25.94
2018-07-24T05:54:08.833Z,25.98
2018-07-24T05:55:08.835Z,26.01
2018-07-24T05:56:08.809Z,26.07
2018-07-24T05:57:08.798Z,26.18
2018-07-24T05:58:08.788Z,26.23
2018-07-24T05:59:08.790Z,26.28
2018-07-24T06:00:08.765Z,26.28
2018-07-24T06:01:08.756Z,26.25
2018-07-24T06:02:08.746Z,26.30
2018-07-24T06:03:08.749Z,26.28
2018-07-24T06:04:08.723Z,26.23
2018-07-24T06:05:08.711Z,26.30
2018-07-24T06:06:08.703Z,26.30
2018-07-24T06:07:08.690Z,26.44
2018-07-24T06:08:08.698Z,26.43
2018-07-24T06:09:08.669Z,26.37
2018-07-24T06:10:08.662Z,26.51
2018-07-24T06:11:08.647Z,26.54
2018-07-24T06:12:08.638Z,26.52
2018-07-24T06:13:08.671Z,26.44
2018-07-24T06:14:08.631Z,26.51
2018-07-24T06:15:08.611Z,26.47
2018-07-24T06:16:08.598Z,26.52
2018-07-24T06:17:08.637Z,26.73
2018-07-24T06:18:08.574Z,26.70
2018-07-24T06:19:08.578Z,26.65
2018-07-24T06:20:08.556Z,26.57
2018-07-24T06:21:08.547Z,26.62
2018-07-24T06:22:08.536Z,26.63
2018-07-24T06:23:08.524Z,26.47
2018-07-24T06:24:08.532Z,26.36
2018-07-24T06:25:08.516Z,26.35
2018-07-24T06:26:08.491Z,26.37
2018-07-24T06:27:08.483Z,26.48
2018-07-24T06:28:08.472Z,26.63
2018-07-24T06:29:08.461Z,26.80
2018-07-24T06:30:08.464Z,27.10
2018-07-24T06:31:08.439Z,27.04
2018-07-24T06:32:08.425Z,27.07
2018-07-24T06:33:08.414Z,27.19
2018-07-24T06:34:08.406Z,27.32
2018-07-24T06:35:08.481Z,27.28
2018-07-24T06:36:08.384Z,27.50
2018-07-24T06:37:08.371Z,27.57
2018-07-24T06:38:08.359Z,27.37
2018-07-24T06:39:08.351Z,27.44
2018-07-24T06:40:08.339Z,27.39
2018-07-24T06:41:08.339Z,27.62
2018-07-24T06:42:08.334Z,27.72
2018-07-24T06:43:08.302Z,27.84
2018-07-24T06:44:08.298Z,27.79
2018-07-24T06:45:08.283Z,27.87
2018-07-24T06:46:08.271Z,27.96
2018-07-24T06:47:08.261Z,28.02
2018-07-24T06:48:08.260Z,28.11
2018-07-24T06:49:08.239Z,28.19
2018-07-24T06:50:08.229Z,28.30
2018-07-24T06:51:08.270Z,28.37
2018-07-24T06:52:08.222Z,28.43
2018-07-24T06:53:08.194Z,28.33
2018-07-24T06:54:08.186Z,28.39
2018-07-24T06:55:08.175Z,28.41
2018-07-24T06:56:08.165Z,28.58
2018-07-24T06:57:08.172Z,28.62
2018-07-24T06:58:08.144Z,28.61
2018-07-24T06:59:08.131Z,28.27
2018-07-24T07:00:08.124Z,28.14
2018-07-24T07:01:08.113Z,28.27
2018-07-24T07:02:08.208Z,28.37
2018-07-24T07:03:08.105Z,28.49
2018-07-24T07:04:08.080Z,28.68
2018-07-24T07:05:08.152Z,28.66
2018-07-24T07:06:08.060Z,28.80
2018-07-24T07:07:08.059Z,28.86
2018-07-24T07:08:08.035Z,28.89
2018-07-24T07:09:08.029Z,29.04
2018-07-24T07:10:08.037Z,29.16
2018-07-24T07:11:08.005Z,29.30
2018-07-24T07:12:08.010Z,29.67
2018-07-24T07:13:08.045Z,30.10
2018-07-24T07:14:07.988Z,30.07
2018-07-24T07:15:07.963Z,30.17
2018-07-24T07:16:07.972Z,30.54
2018-07-24T07:17:07.958Z,31.04
2018-07-24T07:18:07.934Z,31.51
2018-07-24T07:19:07.921Z,32.14
2018-07-24T07:20:07.928Z,32.74
2018-07-24T07:21:07.903Z,33.47
2018-07-24T07:22:07.901Z,34.10
2018-07-24T07:23:07.882Z,34.81
2018-07-24T07:24:07.869Z,35.50
2018-07-24T07:25:07.865Z,36.07
2018-07-24T07:26:07.867Z,36.20
2018-07-24T07:27:07.838Z,36.23
2018-07-24T07:28:07.836Z,36.20
2018-07-24T07:29:07.843Z,36.29
2018-07-24T07:30:07.806Z,35.92
2018-07-24T07:31:07.809Z,35.72
2018-07-24T07:32:07.814Z,35.97
2018-07-24T07:33:07.777Z,35.80
2018-07-24T07:34:07.766Z,35.36
2018-07-24T07:35:07.769Z,34.96
2018-07-24T07:36:07.745Z,35.25
2018-07-24T07:37:07.735Z,35.26
2018-07-24T07:38:07.728Z,35.06
2018-07-24T07:39:07.727Z,35.22
2018-07-24T07:40:07.719Z,35.25
2018-07-24T07:41:07.696Z,35.63
2018-07-24T07:42:07.700Z,36.00
2018-07-24T07:43:07.672Z,36.47
2018-07-24T07:44:07.665Z,36.47
2018-07-24T07:45:07.656Z,36.56
2018-07-24T07:46:07.659Z,36.49
2018-07-24T07:47:07.658Z,36.64
2018-07-24T07:48:07.622Z,36.07
2018-07-24T07:49:07.615Z,36.09
2018-07-24T07:50:07.602Z,36.31
2018-07-24T07:51:07.595Z,36.31
2018-07-24T07:52:07.585Z,36.38
2018-07-24T07:53:07.588Z,36.13
2018-07-24T07:54:07.566Z,36.09
2018-07-24T07:55:07.555Z,36.20
2018-07-24T07:56:07.542Z,36.22
2018-07-24T07:57:07.536Z,36.35
2018-07-24T07:58:07.557Z,36.50
2018-07-24T07:59:07.520Z,36.27
2018-07-24T08:00:07.506Z,36.25
2018-07-24T08:01:07.496Z,35.78
2018-07-24T08:02:07.486Z,35.62
2018-07-24T08:03:07.491Z,35.36
2018-07-24T08:04:07.466Z,35.26
2018-07-24T08:05:07.453Z,35.52
2018-07-24T08:06:07.445Z,35.65
2018-07-24T08:07:07.433Z,35.77
2018-07-24T08:08:07.435Z,35.74
2018-07-24T08:09:07.434Z,35.77
2018-07-24T08:10:07.401Z,35.92
2018-07-24T08:11:07.393Z,36.07
2018-07-24T08:12:07.384Z,36.23
2018-07-24T08:13:07.376Z,36.50
2018-07-24T08:14:07.395Z,36.60
2018-07-24T08:15:07.369Z,36.57
2018-07-24T08:16:07.343Z,36.27
2018-07-24T08:17:07.335Z,36.22
2018-07-24T08:18:07.324Z,35.96
2018-07-24T08:19:07.315Z,35.65
2018-07-24T08:20:07.319Z,35.31
2018-07-24T08:21:07.292Z,35.11
2018-07-24T08:22:07.283Z,34.89
2018-07-24T08:23:07.270Z,35.07
2018-07-24T08:24:07.263Z,35.38
2018-07-24T08:25:07.275Z,35.53
2018-07-24T08:26:07.246Z,35.74
2018-07-24T08:27:07.232Z,35.68
2018-07-24T08:28:07.234Z,35.10
2018-07-24T08:29:07.217Z,34.34
2018-07-24T08:30:07.204Z,34.37
2018-07-24T08:31:07.215Z,34.56
2018-07-24T08:32:07.184Z,34.65
2018-07-24T08:33:07.178Z,34.69
2018-07-24T08:34:07.183Z,35.03
2018-07-24T08:35:07.163Z,35.34
2018-07-24T08:36:07.163Z,35.31
2018-07-24T08:37:07.138Z,35.36
2018-07-24T08:38:07.128Z,34.88
2018-07-24T08:39:07.119Z,34.87
2018-07-24T08:40:07.109Z,34.94
2018-07-24T08:41:07.116Z,35.15
2018-07-24T08:42:07.090Z,35.04
2018-07-24T08:43:07.078Z,34.52
2018-07-24T08:44:07.068Z,34.53
2018-07-24T08:45:07.058Z,34.64
2018-07-24T08:46:07.048Z,34.96
2018-07-24T08:47:07.053Z,35.16
2018-07-24T08:48:07.049Z,35.10
2018-07-24T08:49:07.023Z,35.26
2018-07-24T08:50:07.013Z,35.21
2018-07-24T08:51:07.007Z,35.37
2018-07-24T08:52:07.007Z,35.40
2018-07-24T08:53:07.175Z,35.63
2018-07-24T08:54:07.114Z,35.80
2018-07-24T08:55:07.170Z,36.07
2018-07-24T08:56:06.950Z,35.81
2018-07-24T08:57:06.958Z,34.70
2018-07-24T08:58:06.934Z,34.00
2018-07-24T08:59:06.922Z,33.84
2018-07-24T09:00:06.912Z,33.98
2018-07-24T09:01:06.906Z,34.10
2018-07-24T09:02:06.909Z,34.35
2018-07-24T09:03:06.939Z,34.52
2018-07-24T09:04:06.898Z,34.64
2018-07-24T09:05:06.863Z,34.66
2018-07-24T09:06:06.858Z,34.77
2018-07-24T09:07:06.843Z,34.70
2018-07-24T09:08:06.848Z,34.70
2018-07-24T09:09:06.845Z,34.73
2018-07-24T09:10:06.838Z,34.70
2018-07-24T09:11:06.804Z,34.82
2018-07-24T09:12:06.797Z,34.73
2018-07-24T09:13:06.784Z,34.66
2018-07-24T09:14:06.778Z,34.64
2018-07-24T09:15:06.780Z,34.75
2018-07-24T09:16:06.759Z,34.91
2018-07-24T09:17:06.748Z,35.21
2018-07-24T09:18:06.739Z,35.45
2018-07-24T09:19:06.726Z,35.53
2018-07-24T09:20:06.730Z,35.74
2018-07-24T09:21:06.709Z,35.68
2018-07-24T09:22:06.697Z,35.66
2018-07-24T09:23:06.702Z,35.28
2018-07-24T09:24:06.683Z,34.94
2018-07-24T09:25:06.683Z,35.16
2018-07-24T09:26:06.659Z,35.28
2018-07-24T09:27:06.718Z,35.40
2018-07-24T09:28:06.656Z,35.55
2018-07-24T09:29:06.639Z,35.72
2018-07-24T09:30:06.626Z,36.05
2018-07-24T09:31:06.630Z,36.20
2018-07-24T09:32:06.668Z,35.97
2018-07-24T09:33:06.609Z,36.03
2018-07-24T09:34:06.586Z,35.93
2018-07-24T09:35:06.578Z,35.55
2018-07-24T09:36:06.566Z,34.53
2018-07-24T09:37:06.560Z,34.19
2018-07-24T09:38:06.559Z,34.03
2018-07-24T09:39:06.540Z,34.15
2018-07-24T09:40:06.530Z,34.35
2018-07-24T09:41:06.528Z,34.52
2018-07-24T09:42:06.513Z,34.80
2018-07-24T09:43:06.525Z,35.00
2018-07-24T09:44:06.491Z,35.10
2018-07-24T09:45:06.481Z,35.07
2018-07-24T09:46:06.469Z,35.15
2018-07-24T09:47:06.463Z,35.19
2018-07-24T09:48:06.450Z,35.33
2018-07-24T09:49:06.461Z,35.31
2018-07-24T09:50:06.430Z,35.50
2018-07-24T09:51:06.422Z,35.65
2018-07-24T09:52:06.409Z,35.68
2018-07-24T09:53:06.401Z,35.82
2018-07-24T09:54:06.393Z,35.92
2018-07-24T09:55:06.399Z,35.28
2018-07-24T09:56:06.373Z,34.85
2018-07-24T09:57:06.379Z,33.88
2018-07-24T09:58:06.359Z,33.59
2018-07-24T09:59:06.345Z,34.02
2018-07-24T10:00:06.354Z,34.46
2018-07-24T10:01:06.329Z,34.82
2018-07-24T10:02:06.320Z,35.06
2018-07-24T10:03:06.309Z,35.43
2018-07-24T10:04:06.303Z,35.65
2018-07-24T10:05:06.304Z,35.85
2018-07-24T10:06:06.297Z,35.82
2018-07-24T10:07:06.273Z,36.09
2018-07-24T10:08:06.266Z,36.39
2018-07-24T10:09:06.253Z,36.54
2018-07-24T10:10:06.286Z,36.56
2018-07-24T10:11:06.326Z,36.80
2018-07-24T10:12:06.298Z,36.75
2018-07-24T10:13:06.372Z,36.83
2018-07-24T10:14:06.209Z,36.78
2018-07-24T10:15:06.209Z,36.78
2018-07-24T10:16:06.207Z,36.73
2018-07-24T10:17:06.181Z,36.69
2018-07-24T10:18:06.172Z,36.71
2018-07-24T10:19:06.163Z,36.76
2018-07-24T10:20:06.153Z,36.73
2018-07-24T10:21:06.164Z,36.91
2018-07-24T10:22:06.135Z,36.95
2018-07-24T10:23:06.125Z,36.93
2018-07-24T10:24:06.117Z,36.95
2018-07-24T10:25:06.109Z,36.91
2018-07-24T10:26:06.118Z,36.81
2018-07-24T10:27:06.090Z,36.84
2018-07-24T10:28:06.084Z,36.69
2018-07-24T10:29:06.070Z,36.17
2018-07-24T10:30:06.067Z,35.53
2018-07-24T10:31:06.070Z,34.91
2018-07-24T10:32:06.046Z,34.66
2018-07-24T10:33:06.075Z,34.56
2018-07-24T10:34:06.025Z,34.50
2018-07-24T10:35:06.019Z,34.47
2018-07-24T10:36:06.009Z,34.66
2018-07-24T10:37:05.999Z,35.03
2018-07-24T10:38:05.992Z,35.36
2018-07-24T10:39:05.996Z,35.65
2018-07-24T10:40:05.974Z,35.52
2018-07-24T10:41:05.964Z,35.26
2018-07-24T10:42:05.967Z,35.23
2018-07-24T10:43:05.954Z,35.28
2018-07-24T10:44:05.979Z,35.10
2018-07-24T10:45:05.932Z,35.19
2018-07-24T10:46:05.919Z,35.55
2018-07-24T10:47:05.911Z,35.48
2018-07-24T10:48:05.899Z,35.48
2018-07-24T10:49:05.889Z,35.63
2018-07-24T10:50:05.893Z,35.96
2018-07-24T10:51:05.871Z,36.22
2018-07-24T10:52:05.865Z,36.28
2018-07-24T10:53:05.853Z,36.51
2018-07-24T10:54:05.848Z,36.59
2018-07-24T10:55:05.854Z,36.73
2018-07-24T10:56:05.830Z,36.76
2018-07-24T10:57:05.821Z,36.91
2018-07-24T10:58:05.814Z,37.12
2018-07-24T10:59:05.816Z,37.21
2018-07-24T11:00:05.808Z,37.37
2018-07-24T11:01:05.782Z,36.83
2018-07-24T11:02:05.795Z,36.09
2018-07-24T11:03:05.763Z,35.34
2018-07-24T11:04:05.765Z,34.85
2018-07-24T11:05:05.745Z,34.91
2018-07-24T11:06:05.751Z,35.15
2018-07-24T11:07:05.730Z,35.60
2018-07-24T11:08:05.746Z,35.94
2018-07-24T11:09:05.708Z,36.09
2018-07-24T11:10:05.700Z,36.19
2018-07-24T11:11:05.763Z,36.00
2018-07-24T11:12:05.683Z,36.22
2018-07-24T11:13:05.675Z,36.29
2018-07-24T11:14:05.687Z,36.37
2018-07-24T11:15:05.658Z,36.47
2018-07-24T11:16:05.646Z,36.69
2018-07-24T11:17:05.640Z,36.80
2018-07-24T11:18:05.630Z,36.75
2018-07-24T11:19:05.620Z,36.59
2018-07-24T11:20:10.762Z,36.28
2018-07-24T11:21:05.601Z,36.03
2018-07-24T11:22:05.728Z,36.22
2018-07-24T11:23:05.725Z,36.20
2018-07-24T11:24:05.611Z,35.87
2018-07-24T11:25:05.580Z,35.80
2018-07-24T11:26:05.561Z,35.71
2018-07-24T11:27:05.548Z,35.77
2018-07-24T11:28:05.555Z,35.56
2018-07-24T11:29:05.529Z,35.16
2018-07-24T11:30:05.531Z,34.69
2018-07-24T11:31:05.512Z,34.40
2018-07-24T11:32:05.502Z,34.31
2018-07-24T11:33:05.549Z,34.54
2018-07-24T11:34:05.484Z,34.62
2018-07-24T11:35:05.486Z,34.80
2018-07-24T11:36:05.587Z,35.21
2018-07-24T11:37:05.458Z,35.36
2018-07-24T11:38:05.452Z,35.63
2018-07-24T11:39:05.440Z,35.70
2018-07-24T11:40:05.445Z,35.16
2018-07-24T11:41:05.498Z,34.59
2018-07-24T11:42:05.411Z,34.61
2018-07-24T11:43:05.404Z,34.44
2018-07-24T11:44:05.451Z,34.42
2018-07-24T11:45:05.385Z,34.53
2018-07-24T11:46:05.392Z,34.77
2018-07-24T11:47:05.367Z,34.75
2018-07-24T11:48:05.357Z,34.84
2018-07-24T11:49:05.366Z,34.97
2018-07-24T11:50:05.340Z,35.23
2018-07-24T11:51:05.345Z,35.52
2018-07-24T11:52:05.334Z,35.75
2018-07-24T11:53:05.312Z,36.25
2018-07-24T11:54:05.306Z,36.46
2018-07-24T11:55:05.310Z,36.69
2018-07-24T11:56:05.286Z,36.80
2018-07-24T11:57:05.294Z,36.81
2018-07-24T11:58:05.267Z,36.90
2018-07-24T11:59:05.259Z,37.07
2018-07-24T12:00:05.269Z,37.06
2018-07-24T12:01:05.241Z,37.22
2018-07-24T12:02:05.234Z,37.36
2018-07-24T12:03:05.223Z,37.36
2018-07-24T12:04:05.214Z,37.34
2018-07-24T12:05:05.205Z,37.18
2018-07-24T12:06:05.211Z,37.22
2018-07-24T12:07:05.186Z,37.29
2018-07-24T12:08:05.195Z,37.21
2018-07-24T12:09:05.182Z,37.29
2018-07-24T12:10:05.159Z,37.34
2018-07-24T12:11:05.165Z,37.40
2018-07-24T12:12:05.147Z,37.50
2018-07-24T12:13:05.132Z,37.59
2018-07-24T12:14:05.124Z,37.55
2018-07-24T12:15:05.145Z,37.59
2018-07-24T12:16:05.119Z,37.43
2018-07-24T12:17:05.096Z,37.44
2018-07-24T12:18:05.089Z,37.55
2018-07-24T12:19:05.078Z,37.12
2018-07-24T12:20:05.073Z,37.13
2018-07-24T12:21:05.079Z,37.21
2018-07-24T12:22:05.050Z,37.34
2018-07-24T12:23:05.043Z,37.56
2018-07-24T12:24:05.034Z,37.79
2018-07-24T12:25:05.024Z,37.88
2018-07-24T12:26:05.032Z,38.00
2018-07-24T12:27:05.056Z,38.04
2018-07-24T12:28:04.999Z,38.03
2018-07-24T12:29:05.003Z,37.94
2018-07-24T12:30:04.981Z,37.82
2018-07-24T12:31:04.972Z,37.88
2018-07-24T12:32:04.962Z,37.82
2018-07-24T12:33:04.966Z,37.79
2018-07-24T12:34:04.944Z,37.74
2018-07-24T12:35:04.937Z,37.70
2018-07-24T12:36:04.986Z,37.69
2018-07-24T12:37:04.918Z,37.91
2018-07-24T12:38:04.909Z,37.94
2018-07-24T12:39:04.901Z,37.98
2018-07-24T12:40:04.892Z,37.94
2018-07-24T12:41:04.884Z,37.94
2018-07-24T12:42:04.910Z,38.03
2018-07-24T12:43:04.897Z,37.94
2018-07-24T12:44:04.857Z,37.93
2018-07-24T12:45:04.848Z,38.03
2018-07-24T12:46:04.840Z,38.16
2018-07-24T12:47:04.830Z,38.18
2018-07-24T12:48:04.822Z,38.31
2018-07-24T12:49:04.828Z,38.20
2018-07-24T12:50:04.819Z,38.19
2018-07-24T12:51:04.795Z,38.07
2018-07-24T12:52:04.787Z,38.03